Time;durP1;ratioP1;P1;durP2;ratioP2;P2;SDS_P1;SDS_P2;PMS_P1;PMS_P2;Temp;Humidity;BMP_temperature;BMP_pressure;BME280_temperature;BME280_humidity;BME280_pressure;Samples;Min_cycle;Max_cycle;Signal;HPM_P1;HPM_P2
2022/11/09 00:00:06;;;;;;;79.50;71.60;;;;;;;3.12;97.71;97996.07;103531;1287;25317;-84
2022/11/09 00:02:55;;;;;;;70.80;64.20;;;;;;;3.12;97.88;98002.23;103298;1312;22495;-82
2022/11/09 00:05:22;;;;;;;66.70;60.20;;;;;;;3.10;97.37;98003.02;103101;1312;25267;-84
2022/11/09 00:07:50;;;;;;;77.40;69.90;;;;;;;3.11;96.53;98002.87;103118;1303;24049;-84
2022/11/09 00:10:18;;;;;;;81.80;74.50;;;;;;;3.16;96.85;98002.83;103839;1287;22925;-87
2022/11/09 00:12:46;;;;;;;86.90;77.50;;;;;;;3.14;96.19;98003.98;103232;1312;22493;-83
2022/11/09 00:15:14;;;;;;;60.90;54.90;;;;;;;3.11;96.37;97998.98;103099;1288;22600;-82
2022/11/09 00:17:42;;;;;;;63.40;57.00;;;;;;;3.03;96.05;98004.20;103041;1297;22606;-83
2022/11/09 00:20:11;;;;;;;61.40;55.70;;;;;;;2.89;96.18;98005.45;103390;1312;22629;-82
2022/11/09 00:22:39;;;;;;;61.50;55.50;;;;;;;2.87;96.39;98008.41;103305;1288;22482;-82
2022/11/09 00:25:08;;;;;;;59.20;53.40;;;;;;;2.97;96.97;98004.60;105085;1307;22655;-83
2022/11/09 00:27:35;;;;;;;63.80;57.60;;;;;;;3.10;96.71;98006.31;105655;1311;23878;-84
2022/11/09 00:30:04;;;;;;;64.90;58.40;;;;;;;3.11;96.31;98006.12;103191;1312;22516;-84
2022/11/09 00:32:32;;;;;;;61.40;55.40;;;;;;;3.00;95.84;98006.63;103306;1293;25356;-83
2022/11/09 00:35:00;;;;;;;58.00;52.30;;;;;;;2.94;96.41;98008.66;103571;1295;22563;-82
2022/11/09 00:37:29;;;;;;;56.70;51.40;;;;;;;2.88;97.31;98008.88;103324;1312;22608;-83
2022/11/09 00:39:57;;;;;;;50.80;45.90;;;;;;;2.89;97.85;98009.88;103105;1287;22472;-82
2022/11/09 00:42:27;;;;;;;48.60;43.80;;;;;;;2.93;98.29;98009.52;102760;1287;22473;-82
2022/11/09 00:44:55;;;;;;;51.60;46.10;;;;;;;2.95;98.76;98007.20;102823;1305;22618;-82
2022/11/09 00:47:22;;;;;;;53.90;48.60;;;;;;;2.87;98.65;98009.77;103043;1313;24337;-82
2022/11/09 00:49:54;;;;;;;54.90;49.60;;;;;;;2.80;98.70;98009.17;103048;1312;22637;-82
2022/11/09 00:52:24;;;;;;;62.00;56.10;;;;;;;2.76;97.98;97998.05;102881;1312;24314;-84
2022/11/09 00:54:57;;;;;;;52.20;47.10;;;;;;;2.74;97.62;97998.94;102893;1293;24057;-84
2022/11/09 00:57:51;;;;;;;53.70;48.50;;;;;;;2.81;97.50;97998.54;103327;1312;25269;-85
2022/11/09 01:00:22;;;;;;;54.60;49.40;;;;;;;2.88;97.76;98000.13;103294;1280;22504;-82
2022/11/09 01:02:52;;;;;;;56.70;51.40;;;;;;;2.87;97.51;98001.70;103452;1281;23226;-84
2022/11/09 01:05:20;;;;;;;60.80;55.20;;;;;;;2.96;97.63;98000.17;103348;1288;24333;-84
2022/11/09 01:07:54;;;;;;;72.80;65.90;;;;;;;3.07;97.83;97999.14;103384;1280;22626;-83
2022/11/09 01:10:28;;;;;;;58.40;52.60;;;;;;;3.09;98.70;97995.77;103240;1287;22538;-87
2022/11/09 01:12:56;;;;;;;57.40;51.70;;;;;;;3.13;99.15;97989.41;103266;1295;22495;-85
2022/11/09 01:15:26;;;;;;;58.00;52.10;;;;;;;3.20;99.56;97989.82;103069;1288;22571;-84
2022/11/09 01:17:55;;;;;;;51.80;46.80;;;;;;;3.24;98.90;97990.03;102822;1289;22482;-86
2022/11/09 01:20:24;;;;;;;56.90;51.30;;;;;;;3.18;98.68;97987.04;103198;1291;22511;-84
2022/11/09 01:22:54;;;;;;;54.10;49.20;;;;;;;3.11;98.61;97985.99;103164;1304;24340;-86
2022/11/09 01:25:21;;;;;;;53.50;48.30;;;;;;;3.09;98.32;97987.83;102970;1290;24466;-86
2022/11/09 01:27:49;;;;;;;59.50;53.70;;;;;;;3.00;98.47;97982.98;103299;1284;23143;-85
2022/11/09 01:30:17;;;;;;;56.20;50.80;;;;;;;2.96;99.89;97984.11;102907;1312;22477;-86
2022/11/09 01:32:45;;;;;;;51.70;46.90;;;;;;;3.00;99.99;97982.66;102747;1315;22526;-85
2022/11/09 01:35:13;;;;;;;52.40;47.40;;;;;;;2.99;100.00;97985.27;103076;1312;24291;-86
2022/11/09 01:37:41;;;;;;;51.80;46.70;;;;;;;3.02;100.00;97984.92;103246;1287;24377;-86
2022/11/09 01:40:11;;;;;;;51.90;46.80;;;;;;;3.02;100.00;97988.06;102998;1304;23927;-85
2022/11/09 01:42:39;;;;;;;50.80;45.70;;;;;;;3.01;100.00;97984.65;103016;1291;25286;-87
2022/11/09 01:45:16;;;;;;;58.50;52.90;;;;;;;3.02;100.00;97982.59;103032;1299;24345;-89
2022/11/09 01:47:49;;;;;;;53.90;48.60;;;;;;;3.09;99.87;97976.59;104090;1309;22510;-86
2022/11/09 01:50:25;;;;;;;55.60;50.40;;;;;;;3.08;99.42;97975.14;105015;1312;22491;-87
2022/11/09 01:52:53;;;;;;;59.60;54.00;;;;;;;2.97;99.92;97975.38;104680;1288;22566;-90
2022/11/09 01:55:23;;;;;;;56.30;50.60;;;;;;;2.94;100.00;97975.88;103186;1293;24264;-87
2022/11/09 01:58:04;;;;;;;59.10;53.60;;;;;;;2.95;100.00;97967.11;103319;1280;22493;-89
2022/11/09 02:00:36;;;;;;;54.20;48.80;;;;;;;2.96;99.91;97964.19;103356;1288;22477;-87
2022/11/09 02:03:09;;;;;;;59.30;53.70;;;;;;;2.90;99.73;97961.36;102730;1312;22512;-89
2022/11/09 02:05:40;;;;;;;54.80;49.70;;;;;;;2.83;99.85;97960.77;103510;1289;25398;-89
2022/11/09 02:08:14;;;;;;;54.90;49.10;;;;;;;2.79;100.00;97959.83;103490;1312;24375;-90
2022/11/09 02:10:51;;;;;;;54.50;49.40;;;;;;;2.78;99.85;97961.67;103223;1298;22618;-90
2022/11/09 02:13:23;;;;;;;52.20;47.10;;;;;;;2.79;99.90;97959.61;103278;1282;23228;-83
2022/11/09 02:15:51;;;;;;;53.00;47.60;;;;;;;2.91;99.96;97961.24;103277;1296;23922;-84
2022/11/09 02:18:21;;;;;;;49.90;45.20;;;;;;;2.97;99.97;97958.34;103186;1312;24459;-82
2022/11/09 02:20:53;;;;;;;50.50;45.70;;;;;;;2.93;100.00;97956.77;102811;1302;22622;-83
2022/11/09 02:23:28;;;;;;;47.80;43.30;;;;;;;2.92;100.00;97950.04;103261;1306;22626;-83
2022/11/09 02:26:04;;;;;;;54.30;49.10;;;;;;;2.90;99.92;97949.75;103197;1311;160411;-85
2022/11/09 02:28:35;;;;;;;55.50;49.90;;;;;;;2.85;100.00;97948.63;103277;1312;22485;-85
2022/11/09 02:31:05;;;;;;;50.10;45.00;;;;;;;2.81;100.00;97948.35;103161;1283;25469;-84
2022/11/09 02:34:07;;;;;;;48.00;43.50;;;;;;;2.85;100.00;97942.45;103180;1290;25476;-84
2022/11/09 02:36:35;;;;;;;48.70;43.80;;;;;;;2.96;100.00;97941.02;102723;1314;22620;-83
2022/11/09 02:39:05;;;;;;;46.50;42.00;;;;;;;2.96;100.00;97936.83;104798;1318;22485;-83
2022/11/09 02:41:45;;;;;;;47.30;42.60;;;;;;;2.96;99.98;97935.13;104104;1311;22514;-84
2022/11/09 02:44:15;;;;;;;57.80;51.80;;;;;;;2.98;99.90;97934.89;103621;1294;22668;-83
2022/11/09 02:46:43;;;;;;;53.10;48.00;;;;;;;2.90;99.74;97930.37;102345;1318;25279;-84
2022/11/09 02:49:11;;;;;;;51.70;46.60;;;;;;;2.87;99.72;97928.52;102248;1293;22495;-84
2022/11/09 02:51:39;;;;;;;54.70;49.10;;;;;;;2.87;99.94;97928.27;102637;1318;22526;-82
2022/11/09 02:54:07;;;;;;;52.80;47.50;;;;;;;2.95;100.00;97924.62;102297;1296;24438;-84
2022/11/09 02:56:36;;;;;;;52.90;47.80;;;;;;;3.04;99.89;97928.52;102482;1320;22895;-85
2022/11/09 02:59:04;;;;;;;61.90;56.10;;;;;;;2.97;99.90;97932.31;102617;1293;22675;-86
2022/11/09 03:01:33;;;;;;;50.90;46.00;;;;;;;2.96;100.00;97935.23;102569;1318;22879;-84
2022/11/09 03:04:01;;;;;;;47.30;42.70;;;;;;;2.94;100.00;97937.29;102407;1313;22473;-85
2022/11/09 03:06:33;;;;;;;51.20;46.40;;;;;;;2.93;100.00;97937.48;102172;1311;22549;-83
2022/11/09 03:09:09;;;;;;;56.30;51.00;;;;;;;2.95;100.00;97939.36;102426;1296;25307;-84
2022/11/09 03:11:39;;;;;;;53.70;48.80;;;;;;;2.99;100.00;97939.70;102498;1318;22570;-85
2022/11/09 03:14:11;;;;;;;47.70;43.00;;;;;;;2.96;100.00;97941.62;103080;1296;22657;-84
2022/11/09 03:16:44;;;;;;;45.30;41.10;;;;;;;2.93;100.00;97946.80;103249;1288;22586;-84
2022/11/09 03:19:17;;;;;;;52.60;47.60;;;;;;;2.82;100.00;97947.41;103324;1287;22528;-85
2022/11/09 03:21:46;;;;;;;49.60;44.90;;;;;;;2.75;100.00;97955.35;103288;1281;22554;-84
2022/11/09 03:24:14;;;;;;;50.80;45.90;;;;;;;2.66;100.00;97955.98;103139;1298;22529;-84
2022/11/09 03:26:42;;;;;;;50.00;45.60;;;;;;;2.65;100.00;97953.30;103332;1288;25672;-86
2022/11/09 03:29:10;;;;;;;49.30;44.50;;;;;;;2.71;100.00;97950.46;103110;1313;22556;-85
2022/11/09 03:31:39;;;;;;;47.00;42.60;;;;;;;2.79;100.00;97955.30;103136;1295;22508;-86
2022/11/09 03:34:08;;;;;;;51.20;46.50;;;;;;;2.83;100.00;97961.10;103124;1312;24294;-87
2022/11/09 03:36:36;;;;;;;47.40;43.00;;;;;;;2.76;100.00;97958.13;103284;1311;22536;-87
2022/11/09 03:39:04;;;;;;;51.30;46.50;;;;;;;2.64;100.00;97964.58;103215;1309;22615;-85
2022/11/09 03:41:33;;;;;;;50.40;45.50;;;;;;;2.62;100.00;97962.73;103224;1312;24309;-86
2022/11/09 03:44:02;;;;;;;44.60;40.40;;;;;;;2.62;100.00;97960.77;103086;1305;22549;-85
2022/11/09 03:46:29;;;;;;;44.40;39.90;;;;;;;2.56;100.00;97960.11;103083;1288;22583;-86
2022/11/09 03:48:57;;;;;;;44.30;40.00;;;;;;;2.53;100.00;97959.48;102727;1312;22679;-85
2022/11/09 03:51:25;;;;;;;71.60;65.40;;;;;;;2.52;100.00;97951.95;102779;1311;22529;-84
2022/11/09 03:53:53;;;;;;;54.70;49.50;;;;;;;2.53;100.00;97945.07;103097;1298;25221;-85
2022/11/09 03:56:21;;;;;;;46.90;42.30;;;;;;;2.47;100.00;97949.45;103647;1298;22612;-85
2022/11/09 03:58:49;;;;;;;56.80;51.50;;;;;;;2.42;100.00;97947.52;103885;1288;22509;-84
2022/11/09 04:01:17;;;;;;;45.10;40.80;;;;;;;2.47;100.00;97945.73;103647;1302;25344;-84
2022/11/09 04:03:45;;;;;;;43.40;39.30;;;;;;;2.45;100.00;97947.71;103066;1311;25329;-83
2022/11/09 04:06:13;;;;;;;60.70;54.60;;;;;;;2.49;100.00;97941.20;103094;1300;25331;-85
2022/11/09 04:08:41;;;;;;;47.20;42.80;;;;;;;2.53;100.00;97937.52;103226;1306;24459;-83
2022/11/09 04:11:19;;;;;;;52.10;47.40;;;;;;;2.54;100.00;97930.29;103233;1311;22933;-86
2022/11/09 04:13:47;;;;;;;57.00;51.60;;;;;;;2.61;100.00;97929.70;103360;1287;22623;-84
2022/11/09 04:16:14;;;;;;;49.30;44.50;;;;;;;2.66;100.00;97921.51;103087;1313;22867;-84
2022/11/09 04:18:42;;;;;;;51.00;46.20;;;;;;;2.65;100.00;97928.90;103307;1297;24377;-83
2022/11/09 04:21:10;;;;;;;54.10;49.20;;;;;;;2.59;100.00;97924.18;103107;1312;24192;-83
2022/11/09 04:23:38;;;;;;;53.80;48.80;;;;;;;2.63;100.00;97919.29;103300;1306;22882;-84
2022/11/09 04:26:06;;;;;;;53.80;48.70;;;;;;;2.70;100.00;97914.48;103115;1312;22531;-82
2022/11/09 04:28:34;;;;;;;63.50;57.80;;;;;;;2.76;100.00;97917.74;103280;1311;24295;-84
2022/11/09 04:31:02;;;;;;;55.80;50.30;;;;;;;2.74;100.00;97918.42;103273;1296;24449;-84
2022/11/09 04:33:30;;;;;;;58.00;52.40;;;;;;;2.58;100.00;97913.10;103297;1312;23496;-83
2022/11/09 04:36:03;;;;;;;57.40;51.80;;;;;;;2.50;100.00;97912.85;103313;1288;22604;-84
2022/11/09 04:38:32;;;;;;;57.50;51.70;;;;;;;2.49;100.00;97907.95;102864;1291;22604;-84
2022/11/09 04:41:01;;;;;;;55.40;50.00;;;;;;;2.39;100.00;97907.05;103069;1312;22566;-84
2022/11/09 04:43:29;;;;;;;61.10;55.30;;;;;;;2.33;100.00;97913.19;103510;1304;22870;-85
2022/11/09 04:46:01;;;;;;;57.00;51.50;;;;;;;2.36;100.00;97913.29;103393;1300;26190;-84
2022/11/09 04:48:30;;;;;;;62.10;56.10;;;;;;;2.33;100.00;97911.55;103716;1288;25298;-85
2022/11/09 04:51:03;;;;;;;64.10;57.90;;;;;;;2.33;100.00;97913.73;103639;1312;22002;-83
2022/11/09 04:53:32;;;;;;;58.60;52.80;;;;;;;2.26;100.00;97916.58;106956;1284;22504;-82
2022/11/09 04:56:01;;;;;;;59.20;53.60;;;;;;;2.29;100.00;97918.93;105980;1281;22563;-86
2022/11/09 04:58:29;;;;;;;56.80;51.30;;;;;;;2.41;100.00;97912.14;103683;1309;22475;-86
2022/11/09 05:01:16;;;;;;;58.40;51.80;;;;;;;2.50;100.00;97921.84;103360;1310;24833;-87
2022/11/09 05:03:44;;;;;;;54.10;48.50;;;;;;;2.40;100.00;97922.92;103377;1310;22547;-85
2022/11/09 05:06:30;;;;;;;66.30;54.80;;;;;;;2.43;100.00;97921.79;103364;1294;25281;-87
2022/11/09 05:09:01;;;;;;;54.00;48.50;;;;;;;2.54;100.00;97922.33;103406;1305;25381;-87
2022/11/09 05:11:30;;;;;;;57.40;51.40;;;;;;;2.68;100.00;97921.65;103396;1288;22533;-86
2022/11/09 05:13:58;;;;;;;59.30;53.10;;;;;;;2.77;100.00;97923.19;103510;1295;22483;-84
2022/11/09 05:16:27;;;;;;;60.10;53.90;;;;;;;2.71;100.00;97924.50;103109;1309;24326;-86
2022/11/09 05:18:56;;;;;;;58.40;50.70;;;;;;;2.48;100.00;97926.38;103426;1309;22715;-85
2022/11/09 05:21:24;;;;;;;54.80;47.80;;;;;;;2.39;100.00;97929.98;103299;1305;22688;-84
2022/11/09 05:23:57;;;;;;;56.80;50.80;;;;;;;2.48;100.00;97930.80;103210;1311;25457;-84
2022/11/09 05:26:36;;;;;;;52.70;47.20;;;;;;;2.63;100.00;97925.46;103376;1288;25448;-83
2022/11/09 05:29:11;;;;;;;55.90;49.90;;;;;;;2.67;100.00;97930.67;104088;1306;22484;-85
2022/11/09 05:31:40;;;;;;;54.70;48.00;;;;;;;2.52;100.00;97930.43;104859;1309;23886;-85
2022/11/09 05:34:11;;;;;;;56.60;50.50;;;;;;;2.49;100.00;97934.69;103446;1309;25313;-85
2022/11/09 05:36:39;;;;;;;54.40;48.40;;;;;;;2.62;100.00;97935.45;103215;1310;24056;-84
2022/11/09 05:39:07;;;;;;;59.10;52.70;;;;;;;2.70;100.00;97936.09;103126;1312;24375;-86
2022/11/09 05:41:35;;;;;;;61.60;52.00;;;;;;;2.82;100.00;97936.81;103419;1309;25269;-83
2022/11/09 05:44:03;;;;;;;51.30;45.80;;;;;;;2.82;100.00;97934.11;103038;1296;22548;-85
2022/11/09 05:46:32;;;;;;;50.70;45.50;;;;;;;2.81;100.00;97932.39;103386;1310;25259;-85
2022/11/09 05:49:00;;;;;;;52.90;47.30;;;;;;;2.85;100.00;97933.25;103164;1295;24862;-86
2022/11/09 05:51:28;;;;;;;45.40;40.40;;;;;;;2.93;100.00;97933.95;103023;1287;24041;-87
2022/11/09 05:53:56;;;;;;;53.00;47.40;;;;;;;2.86;100.00;97935.21;103144;1293;25570;-84
2022/11/09 05:56:24;;;;;;;51.60;46.30;;;;;;;2.82;100.00;97936.02;103108;1309;22652;-85
2022/11/09 05:58:52;;;;;;;64.80;58.30;;;;;;;2.85;100.00;97932.07;103147;1309;22571;-85
2022/11/09 06:01:20;;;;;;;54.50;48.80;;;;;;;2.95;100.00;97934.21;103192;1305;22484;-84
2022/11/09 06:03:48;;;;;;;58.00;51.50;;;;;;;2.97;100.00;97930.29;103108;1297;24184;-85
2022/11/09 06:06:16;;;;;;;79.60;67.30;;;;;;;2.96;100.00;97936.41;103397;1309;25386;-84
2022/11/09 06:08:45;;;;;;;80.70;71.40;;;;;;;2.92;100.00;97936.95;103040;1296;22612;-82
2022/11/09 06:11:13;;;;;;;76.90;68.40;;;;;;;2.99;100.00;97938.73;103403;1288;22878;-85
2022/11/09 06:13:50;;;;;;;79.50;71.40;;;;;;;3.08;100.00;97933.04;103532;1309;23774;-84
2022/11/09 06:16:18;;;;;;;54.90;49.60;;;;;;;3.19;100.00;97936.08;103555;1309;23978;-86
2022/11/09 06:18:46;;;;;;;71.60;64.60;;;;;;;3.33;100.00;97932.34;103670;1284;22634;-84
2022/11/09 06:21:14;;;;;;;61.90;55.90;;;;;;;3.52;100.00;97931.24;103568;1305;22474;-84
2022/11/09 06:23:42;;;;;;;50.30;45.10;;;;;;;3.64;100.00;97932.79;103726;1294;24038;-85
2022/11/09 06:26:11;;;;;;;54.20;48.80;;;;;;;3.64;100.00;97936.27;104410;1310;22473;-90
2022/11/09 06:28:40;;;;;;;56.60;51.10;;;;;;;3.66;100.00;97937.66;104500;1312;22475;-84
2022/11/09 06:31:14;;;;;;;54.70;49.50;;;;;;;3.70;100.00;97945.85;104490;1309;25568;-84
2022/11/09 06:33:42;;;;;;;52.90;47.60;;;;;;;3.76;100.00;97943.09;103349;1303;22481;-84
2022/11/09 06:36:10;;;;;;;46.90;42.40;;;;;;;3.82;100.00;97947.41;103369;1304;22876;-85
2022/11/09 06:38:39;;;;;;;43.40;39.20;;;;;;;3.94;100.00;97951.34;103074;1311;22606;-84
2022/11/09 06:41:08;;;;;;;48.00;43.30;;;;;;;4.03;100.00;97947.84;103468;1297;26488;-86
2022/11/09 06:43:36;;;;;;;46.70;42.30;;;;;;;4.13;100.00;97946.10;103476;1295;25407;-85
2022/11/09 06:46:04;;;;;;;51.70;47.00;;;;;;;4.22;100.00;97945.26;103428;1310;24475;-86
2022/11/09 06:48:32;;;;;;;52.20;47.20;;;;;;;4.32;100.00;97945.96;103381;1310;25352;-84
2022/11/09 06:51:02;;;;;;;58.90;53.60;;;;;;;4.39;100.00;97951.19;103347;1312;22510;-86
2022/11/09 06:53:33;;;;;;;47.90;43.40;;;;;;;4.52;100.00;97950.89;103222;1306;22994;-85
2022/11/09 06:56:03;;;;;;;52.50;44.10;;;;;;;4.70;100.00;97952.86;103123;1309;24387;-87
2022/11/09 06:58:31;;;;;;;50.20;45.20;;;;;;;4.82;100.00;97952.49;103227;1300;24044;-86
2022/11/09 07:01:05;;;;;;;50.40;45.50;;;;;;;4.93;100.00;97955.70;103339;1309;22419;-88
2022/11/09 07:03:33;;;;;;;48.20;43.50;;;;;;;5.02;100.00;97954.89;103416;1310;24273;-85
2022/11/09 07:06:12;;;;;;;47.10;42.40;;;;;;;5.13;100.00;97954.18;103330;1304;22449;-88
2022/11/09 07:08:41;;;;;;;48.50;44.10;;;;;;;5.24;100.00;97956.23;103692;1310;22470;-87
2022/11/09 07:11:11;;;;;;;46.90;42.50;;;;;;;5.37;100.00;97951.36;106033;1287;22554;-83
2022/11/09 07:13:39;;;;;;;43.10;39.10;;;;;;;5.50;100.00;97953.69;105121;1309;22497;-86
2022/11/09 07:16:10;;;;;;;53.90;48.90;;;;;;;5.63;100.00;97948.15;103977;1310;22465;-86
2022/11/09 07:18:38;;;;;;;55.00;49.90;;;;;;;5.77;100.00;97949.09;103454;1309;22488;-85
2022/11/09 07:21:06;;;;;;;59.00;53.40;;;;;;;5.87;100.00;97947.91;103328;1309;22516;-87
2022/11/09 07:23:42;;;;;;;52.90;47.90;;;;;;;6.03;100.00;97950.25;103606;1295;24241;-84
2022/11/09 07:26:10;;;;;;;52.50;46.80;;;;;;;6.20;100.00;97948.15;105238;1309;22531;-84
2022/11/09 07:28:38;;;;;;;54.00;48.40;;;;;;;6.34;100.00;97943.59;103486;1310;25563;-87
2022/11/09 07:31:07;;;;;;;58.70;52.60;;;;;;;6.51;100.00;97945.77;102988;1311;22491;-88
2022/11/09 07:33:35;;;;;;;72.60;62.00;;;;;;;6.70;100.00;97945.40;103333;1310;23793;-86
2022/11/09 07:36:04;;;;;;;77.20;69.30;;;;;;;6.86;100.00;97942.73;103447;1297;22601;-86
2022/11/09 07:38:34;;;;;;;80.00;71.50;;;;;;;7.00;100.00;97939.84;103631;1309;22429;-89
2022/11/09 07:41:02;;;;;;;81.90;68.40;;;;;;;7.11;100.00;97942.09;103467;1310;22609;-89
2022/11/09 07:43:30;;;;;;;68.40;61.90;;;;;;;7.22;100.00;97942.09;103696;1313;23257;-90
2022/11/09 07:46:02;;;;;;;63.90;57.90;;;;;;;7.36;100.00;97940.73;103481;1295;25324;-87
2022/11/09 07:48:30;;;;;;;64.60;58.30;;;;;;;7.49;100.00;97935.78;103454;1297;22694;-88
2022/11/09 07:51:00;;;;;;;58.70;52.90;;;;;;;7.62;100.00;97942.90;103410;1310;22867;-88
2022/11/09 07:53:28;;;;;;;58.40;52.70;;;;;;;7.72;100.00;97941.86;103455;1310;22493;-87
2022/11/09 07:56:01;;;;;;;49.30;44.40;;;;;;;7.83;100.00;97937.23;103371;1310;25390;-87
2022/11/09 07:58:29;;;;;;;48.40;43.80;;;;;;;7.94;100.00;97931.35;103021;1309;22941;-87
2022/11/09 08:00:57;;;;;;;42.60;38.50;;;;;;;8.06;100.00;97927.02;103284;1310;22470;-87
2022/11/09 08:03:25;;;;;;;47.30;42.30;;;;;;;8.17;100.00;97926.27;103127;1309;24226;-86
2022/11/09 08:05:56;;;;;;;52.90;47.50;;;;;;;8.28;100.00;97923.86;103096;1304;22607;-86
2022/11/09 08:08:24;;;;;;;63.00;56.80;;;;;;;8.35;100.00;97921.65;103162;1297;24294;-85
2022/11/09 08:10:52;;;;;;;64.50;58.10;;;;;;;8.41;100.00;97923.94;103259;1309;22516;-88
2022/11/09 08:13:20;;;;;;;57.70;52.00;;;;;;;8.50;100.00;97928.58;103173;1297;25511;-89
2022/11/09 08:15:49;;;;;;;58.50;52.80;;;;;;;8.56;100.00;97923.19;103077;1296;22882;-85
2022/11/09 08:18:19;;;;;;;57.70;51.70;;;;;;;8.68;100.00;97923.06;103199;1304;22872;-85
2022/11/09 08:20:49;;;;;;;53.90;48.80;;;;;;;8.80;100.00;97918.31;103203;1309;24260;-88
2022/11/09 08:23:19;;;;;;;45.50;41.40;;;;;;;8.93;100.00;97918.54;103287;1309;24218;-88
2022/11/09 08:25:49;;;;;;;56.50;41.00;;;;;;;9.04;100.00;97915.61;103270;1312;22477;-88
2022/11/09 08:28:18;;;;;;;36.90;33.40;;;;;;;9.12;100.00;97917.17;103439;1309;25413;-85
2022/11/09 08:30:58;;;;;;;38.70;34.60;;;;;;;9.20;100.00;97921.27;103428;1293;24142;-85
2022/11/09 08:33:30;;;;;;;37.80;34.10;;;;;;;9.32;100.00;97916.80;103068;1307;24103;-86
2022/11/09 08:36:01;;;;;;;39.20;35.60;;;;;;;9.42;100.00;97914.03;103240;1310;24830;-86
2022/11/09 08:38:32;;;;;;;35.20;31.90;;;;;;;9.51;100.00;97907.55;103282;1309;25278;-86
2022/11/09 08:41:06;;;;;;;33.30;30.00;;;;;;;9.64;100.00;97910.61;103084;1290;22622;-86
2022/11/09 08:43:40;;;;;;;32.80;29.70;;;;;;;9.69;100.00;97908.95;103101;1310;22537;-85
2022/11/09 08:46:08;;;;;;;34.70;31.10;;;;;;;9.75;100.00;97911.06;103296;1310;22705;-85
2022/11/09 08:48:39;;;;;;;34.50;30.80;;;;;;;9.80;99.40;97908.20;103287;1288;25457;-86
2022/11/09 08:51:07;;;;;;;33.10;29.30;;;;;;;9.86;98.98;97913.10;103197;1310;22920;-85
2022/11/09 08:53:36;;;;;;;33.00;29.60;;;;;;;9.89;98.50;97908.55;103297;1295;24456;-86
2022/11/09 08:56:07;;;;;;;37.50;31.10;;;;;;;9.97;97.41;97912.23;103257;1309;22497;-85
2022/11/09 08:58:35;;;;;;;33.30;30.10;;;;;;;10.02;96.48;97918.57;103099;1310;22538;-86
2022/11/09 09:01:07;;;;;;;32.90;29.50;;;;;;;10.04;96.27;97922.03;103235;1310;24308;-88
2022/11/09 09:03:43;;;;;;;31.50;27.60;;;;;;;10.15;97.23;97924.52;103485;1310;22623;-86
2022/11/09 09:06:11;;;;;;;31.30;28.20;;;;;;;10.29;96.61;97925.88;103923;1295;25358;-87
2022/11/09 09:08:39;;;;;;;29.60;26.90;;;;;;;10.35;95.05;97925.62;104251;1309;22560;-88
2022/11/09 09:11:07;;;;;;;30.80;28.00;;;;;;;10.43;94.59;97920.41;103663;1308;24295;-85
2022/11/09 09:13:35;;;;;;;31.20;28.30;;;;;;;10.48;94.08;97917.27;103659;1310;22512;-87
2022/11/09 09:16:14;;;;;;;;;;;;;;;10.50;92.76;97915.88;103336;1307;22550;-86
2022/11/09 09:18:42;;;;;;;30.60;27.60;;;;;;;10.55;94.14;97912.39;104013;1310;22487;-88
2022/11/09 09:21:10;;;;;;;27.30;24.60;;;;;;;10.58;92.24;97909.75;103623;1295;23222;-86
2022/11/09 09:23:38;;;;;;;31.10;27.10;;;;;;;10.63;93.00;97914.34;104697;1296;22856;-85
2022/11/09 09:26:06;;;;;;;28.50;25.90;;;;;;;10.67;92.47;97914.21;103666;1304;22772;-86
2022/11/09 09:28:34;;;;;;;29.50;26.70;;;;;;;10.72;90.80;97915.94;106517;1291;22692;-85
2022/11/09 09:31:03;;;;;;;27.60;25.00;;;;;;;10.74;91.92;97919.27;105708;1303;25391;-86
2022/11/09 09:33:32;;;;;;;28.80;25.90;;;;;;;10.81;92.23;97921.16;104367;1304;22476;-89
2022/11/09 09:36:00;;;;;;;30.00;27.20;;;;;;;10.88;91.79;97919.69;103609;1310;22544;-85
2022/11/09 09:38:29;;;;;;;30.90;27.80;;;;;;;10.91;90.54;97924.69;103522;1312;22601;-89
2022/11/09 09:40:58;;;;;;;32.10;28.70;;;;;;;10.89;89.88;97921.45;103296;1310;22609;-87
2022/11/09 09:44:00;;;;;;;30.10;27.30;;;;;;;10.88;90.67;97923.56;103337;1310;22663;-89
2022/11/09 09:46:41;;;;;;;31.40;28.30;;;;;;;10.92;90.45;97927.96;103124;1296;24217;-88
2022/11/09 09:49:18;;;;;;;29.80;27.00;;;;;;;10.98;91.14;97920.90;102986;1297;22657;-87
2022/11/09 09:52:31;;;;;;;31.00;28.10;;;;;;;11.09;91.56;97925.86;103537;1310;26623;-85
2022/11/09 09:55:29;;;;;;;30.40;27.50;;;;;;;11.16;90.96;97927.80;103377;1288;26277;-85
2022/11/09 09:58:05;;;;;;;32.00;28.70;;;;;;;11.19;90.93;97919.86;103458;1309;22941;-85
2022/11/09 10:00:35;;;;;;;29.70;27.10;;;;;;;11.23;90.64;97915.09;103218;1312;22513;-87
2022/11/09 10:03:13;;;;;;;31.70;28.70;;;;;;;11.26;90.00;97911.52;103381;1298;25277;-85
2022/11/09 10:06:00;;;;;;;34.80;31.20;;;;;;;11.26;88.73;97917.87;103410;1312;22490;-84
2022/11/09 10:08:46;;;;;;;35.10;31.80;;;;;;;11.28;89.36;97920.55;103446;1296;24321;-83
2022/11/09 10:11:33;;;;;;;32.00;29.10;;;;;;;11.28;86.30;97926.52;103353;1311;22515;-84
2022/11/09 10:14:16;;;;;;;32.70;29.40;;;;;;;11.23;86.49;97922.59;103256;1312;22534;-87
2022/11/09 10:16:58;;;;;;;31.50;25.80;;;;;;;11.27;86.56;97922.13;103343;1290;22607;-85
2022/11/09 10:19:32;;;;;;;27.60;24.80;;;;;;;11.35;87.15;97919.48;103081;1297;25269;-86
2022/11/09 10:22:22;;;;;;;26.60;24.00;;;;;;;11.50;87.59;97914.66;103410;1297;25321;-85
2022/11/09 10:25:05;;;;;;;29.90;27.00;;;;;;;11.61;86.66;97914.41;102957;1312;22490;-84
2022/11/09 10:28:01;;;;;;;27.80;25.00;;;;;;;11.66;85.28;97907.17;103282;1290;22684;-85
2022/11/09 10:30:29;;;;;;;29.40;26.40;;;;;;;11.73;85.83;97904.70;103449;1312;23855;-83
2022/11/09 10:33:10;;;;;;;28.10;25.00;;;;;;;11.82;85.63;97905.09;103389;1296;22604;-84
2022/11/09 10:36:01;;;;;;;26.10;22.90;;;;;;;11.97;86.58;97899.63;103049;1312;22563;-86
2022/11/09 10:38:41;;;;;;;29.90;26.70;;;;;;;12.12;85.09;97899.80;103238;1310;23229;-85
2022/11/09 10:41:39;;;;;;;32.40;27.40;;;;;;;12.16;84.70;97899.11;103354;1312;24316;-86
2022/11/09 10:44:26;;;;;;;23.80;21.30;;;;;;;12.24;83.93;97896.72;103246;1290;22522;-82
2022/11/09 10:47:17;;;;;;;29.20;23.80;;;;;;;12.32;83.31;97898.32;103349;1306;22718;-83
2022/11/09 10:50:26;;;;;;;27.60;24.90;;;;;;;12.45;83.51;97902.67;103462;1312;22564;-83
2022/11/09 10:53:24;;;;;;;27.30;24.50;;;;;;;12.60;82.64;97894.77;103084;1312;24196;-84
2022/11/09 10:56:14;;;;;;;23.30;21.10;;;;;;;12.74;81.02;97891.86;103288;1310;24454;-84
2022/11/09 10:59:53;;;;;;;25.70;23.10;;;;;;;12.82;79.39;97895.26;103509;1310;22708;-84
2022/11/09 11:02:43;;;;;;;23.10;20.60;;;;;;;13.04;79.71;97891.21;102792;1318;25397;-83
2022/11/09 11:05:30;;;;;;;22.50;20.20;;;;;;;13.80;78.51;97888.19;102772;1296;22592;-82
2022/11/09 11:08:30;;;;;;;21.90;19.70;;;;;;;14.68;77.09;97887.27;102887;1317;23051;-83
2022/11/09 11:11:16;;;;;;;24.70;19.80;;;;;;;15.75;78.67;97881.77;102620;1317;25872;-88
2022/11/09 11:14:34;;;;;;;24.60;20.80;;;;;;;16.35;74.72;97878.91;103885;1311;22524;-91
2022/11/09 11:17:34;;;;;;;25.00;22.10;;;;;;;16.63;74.63;97880.33;105150;1281;22540;31
2022/11/09 11:20:31;;;;;;;26.70;21.10;;;;;;;16.39;71.10;97884.90;105393;1281;23519;-93
2022/11/09 11:23:23;;;;;;;28.90;20.90;;;;;;;16.00;73.23;97883.27;102947;1315;23217;-84
2022/11/09 11:26:36;;;;;;;20.20;18.10;;;;;;;15.94;73.45;97883.31;102940;1317;23442;-88
2022/11/09 11:29:45;;;;;;;21.30;19.30;;;;;;;16.17;69.29;97880.59;103141;1315;24844;-87
2022/11/09 11:32:32;;;;;;;20.10;17.90;;;;;;;16.32;67.49;97879.69;103130;1310;25576;-85
2022/11/09 11:35:33;;;;;;;24.20;18.90;;;;;;;16.58;69.88;97875.16;103121;1314;26533;-83
2022/11/09 11:38:36;;;;;;;20.90;18.70;;;;;;;17.17;67.48;97876.45;102936;1293;25362;-86